METAR stanice u blizini

 

LYBE - Beograd / Surčin, Srbija
Ažurirano: 22/08/2019 22:00
Vedro
Vedro
 Pravac vetra varies
Vetar: varies 2 km/h
Temperatura: 25°C
Tačka rose: 18°C
Vlažnost: 65%
Pritisak: 1021 hPa
Pregled: Vedro
Vidljivost: greater than 10 km
2019/08/22 20:00 LYBE 222000Z VRB01KT CAVOK 25/18 Q1021 NOSIG
LYBT - Beograd / Batajnica, Srbija
Ažurirano: 22/08/2019 22:00
Vedro
Vedro
 Pravac vetra calm
Vetar: Tišina
Temperatura: 22°C
Tačka rose: 19°C
Vlažnost: 83%
Pritisak: 1021 hPa
Pregled: Vedro
Vidljivost: greater than 10 km
2019/08/22 20:00 LYBT 222000Z 00000KT CAVOK 22/19 Q1021 NOSIG
LYVR - Vršac, Srbija
Ažurirano: 22/08/2019 22:00
Vedro
Vedro
 Pravac vetra SI
Vetar: SI 6 km/h
Temperatura: 22°C
Tačka rose: 18°C
Vlažnost: 78%
Pritisak: 1021 hPa
Pregled: Vedro
Vidljivost: greater than 10 km
2019/08/22 20:00 LYVR 222000Z 05003KT CAVOK 22/18 Q1021 NOSIG
 
LYKV - Lađevci, Srbija
Ažurirano: 22/08/2019 22:00
Vedro
Vedro
 Pravac vetra SZ
Vetar: SZ 6 km/h
Temperatura: 24°C
Tačka rose: 17°C
Vlažnost: 65%
Pritisak: 1022 hPa
Pregled: Vedro
Vidljivost: greater than 10 km
2019/08/22 20:00 LYKV 222000Z 31003KT CAVOK 24/17 Q1022 NOSIG
LYNI - Niš, Srbija
Ažurirano: 22/08/2019 22:00
Vedro
Vedro
 Pravac vetra varies
Vetar: varies 17 km/h
Temperatura: 27°C
Heat Index: 28°C
Tačka rose: 16°C
Vlažnost: 51%
Pritisak: 1021 hPa
Pregled: Vedro
Vidljivost: greater than 10 km
2019/08/22 20:00 LYNI 222000Z VRB09KT CAVOK 27/16 Q1021 NOSIG
BKPR - Priština, Srbija
Ažurirano: 22/08/2019 22:00
Vedro
Vedro
 Pravac vetra SSZ
Vetar: SSZ 9 km/h
Temperatura: 25°C
Tačka rose: 13°C
Vlažnost: 47%
Pritisak: 1022 hPa
Pregled: Vedro
Vidljivost: greater than 10 km
2019/08/22 20:00 BKPR 222000Z 33005KT CAVOK 25/13 Q1022 NOSIG
 
LHPP - Pecs / Pogany, Hungary
Ažurirano: 22/08/2019 18:45
NOT Current
Vedro
Vedro
 Pravac vetra ISI
Vetar: ISI 13 km/h
Temperatura: 26°C
Tačka rose: 18°C
Vlažnost: 61%
Pritisak: 1022 hPa
Pregled: Vedro
Vidljivost: greater than 10 km
2019/08/22 16:45 LHPP 221645Z 06007KT CAVOK 26/18 Q1022
LHUD - Szeged, Hungary
Ažurirano: 04/07/2019 01:45
NOT Current
Vedro
Vedro
 Pravac vetra S
Vetar: S 7 km/h
Temperatura: 18°C
Tačka rose: 13°C
Vlažnost: 73%
Pritisak: 1019 hPa
Pregled: Vedro
Vidljivost: greater than 10 km
2019/07/03 23:45 LHUD 032345Z 35004KT CAVOK 18/13 Q1019
LRTR - Timisoara, Romania
Ažurirano: 22/08/2019 22:00
Vedro
Vedro
 Pravac vetra SI
Vetar: SI 7 km/h
Temperatura: 24°C
Tačka rose: 19°C
Vlažnost: 74%
Pritisak: 1021 hPa
Pregled: Vedro
Vidljivost: greater than 10 km
2019/08/22 20:00 LRTR 222000Z 04004KT CAVOK 24/19 Q1021
 
LRCV - Craiova, Romania
Ažurirano: 22/08/2019 22:00
Few Clouds
Few Clouds
 Pravac vetra I
Vetar: I 11 km/h
Temperatura: 26°C
Tačka rose: 12°C
Vlažnost: 42%
Pritisak: 1021 hPa
Oblaci: Few Clouds
Vidljivost: 10 km
Cloud details: Few Clouds 3048 m
2019/08/22 20:00 LRCV 222000Z AUTO 10006KT 9999 FEW100/// 26/12 Q1021
LBSF - Sofia, Bulgaria
Ažurirano: 22/08/2019 22:00
Vedro
Vedro
 Pravac vetra JJI
Vetar: JJI 9 km/h
Temperatura: 24°C
Tačka rose: 12°C
Vlažnost: 47%
Pritisak: 1022 hPa
Pregled: Vedro
Vidljivost: greater than 10 km
2019/08/22 20:00 LBSF 222000Z 16005KT CAVOK 24/12 Q1022 NOSIG
LWSK - Skoplje, Makedonija
Ažurirano: 22/08/2019 22:00
Vedro
Vedro
 Pravac vetra varies
Vetar: varies 4 km/h
Temperatura: 26°C
Tačka rose: 12°C
Vlažnost: 42%
Pritisak: 1019 hPa
Pregled: Vedro
Vidljivost: greater than 10 km
2019/08/22 20:00 LWSK 222000Z VRB02KT CAVOK 26/12 Q1019 NOSIG
 
LYPG - Podgorica, Crna Gora
Ažurirano: 22/08/2019 22:00
Vedro
Vedro
 Pravac vetra SSZ
Vetar: SSZ 11 km/h
Temperatura: 28°C
Heat Index: 28°C
Tačka rose: 14°C
Vlažnost: 42%
Pritisak: 1017 hPa
Pregled: Vedro
Vidljivost: greater than 10 km
2019/08/22 20:00 LYPG 222000Z 33006KT CAVOK 28/14 Q1017 NOSIG
LQSA - Sarajevo, Bosna i Hercegovina
Ažurirano: 22/08/2019 22:00
Partly Cloudy
Partly Cloudy
 Pravac vetra SZ
Vetar: SZ 11 km/h
Temperatura: 22°C
Tačka rose: 18°C
Vlažnost: 78%
Pritisak: 1023 hPa
Oblaci: Partly Cloudy
Vidljivost: 10 km
Cloud details: Partly Cloudy 2164 m
2019/08/22 20:00 LQSA 222000Z 31006KT 9999 SCT071 22/18 Q1023 NOSIG
LDOS - Osijek, Hrvatksa
Ažurirano: 22/08/2019 22:00
Vedro
Vedro
 Pravac vetra SSZ
Vetar: SSZ 6 km/h
Temperatura: 22°C
Tačka rose: 19°C
Vlažnost: 83%
Pritisak: 1022 hPa
Pregled: Vedro
Vidljivost: greater than 10 km
2019/08/22 20:00 LDOS 222000Z 34003KT CAVOK 22/19 Q1022